Orlando, Florida
Current Conditions -  °F | °C
As of 5:53 AM on Saturday 25 Oct 2014 (Local Time) from KORL Reporting Station
Clear Clear  
Wind Chill: 18°   Ceiling: Unl
Heat Index: 18°   Visibility: 10mi
Dew Point: 12°   Wind: 8mph
Humidity: 65%   Direction: 340°NNW
Pressure: 29.96"   Gusts: NA
Location:  28.54°N, 81.38°W
Report Text: KORL 250953Z AUTO 34007KT 10SM CLR 18/12 A2996 RMK AO2 SLP147 T01830117
Loading
Personal Weather Stations






























Interactive Weather Map New forecast layout! Learn more

10-Day Weather Forecast

Advertisements
Track Severe Weather on mobile